sensor_id;sensor_type;location;lat;lon;timestamp;P1;durP1;ratioP1;P2;durP2;ratioP2
9864;SDS011;4971;52.398;9.774;2023-06-10T00:01:41;0.30;;;0.30;;
9864;SDS011;4971;52.398;9.774;2023-06-10T00:04:08;0.65;;;0.65;;
9864;SDS011;4971;52.398;9.774;2023-06-10T00:06:34;0.93;;;0.73;;
9864;SDS011;4971;52.398;9.774;2023-06-10T00:09:04;0.30;;;0.30;;
9864;SDS011;4971;52.398;9.774;2023-06-10T00:11:32;0.30;;;0.30;;
9864;SDS011;4971;52.398;9.774;2023-06-10T00:13:59;0.60;;;0.60;;
9864;SDS011;4971;52.398;9.774;2023-06-10T00:16:24;0.60;;;0.60;;
9864;SDS011;4971;52.398;9.774;2023-06-10T00:18:51;0.57;;;0.57;;
9864;SDS011;4971;52.398;9.774;2023-06-10T00:21:17;0.32;;;0.32;;
9864;SDS011;4971;52.398;9.774;2023-06-10T00:23:44;0.52;;;0.50;;
9864;SDS011;4971;52.398;9.774;2023-06-10T00:26:10;0.40;;;0.40;;
9864;SDS011;4971;52.398;9.774;2023-06-10T00:28:36;1.80;;;1.17;;
9864;SDS011;4971;52.398;9.774;2023-06-10T00:31:02;0.93;;;0.85;;
9864;SDS011;4971;52.398;9.774;2023-06-10T00:33:29;0.40;;;0.40;;
9864;SDS011;4971;52.398;9.774;2023-06-10T00:35:55;0.50;;;0.50;;
9864;SDS011;4971;52.398;9.774;2023-06-10T00:38:20;0.40;;;0.40;;
9864;SDS011;4971;52.398;9.774;2023-06-10T00:40:46;0.60;;;0.60;;
9864;SDS011;4971;52.398;9.774;2023-06-10T00:43:12;0.63;;;0.63;;
9864;SDS011;4971;52.398;9.774;2023-06-10T00:45:38;0.50;;;0.50;;
9864;SDS011;4971;52.398;9.774;2023-06-10T00:48:04;0.50;;;0.50;;
9864;SDS011;4971;52.398;9.774;2023-06-10T00:50:30;0.35;;;0.35;;
9864;SDS011;4971;52.398;9.774;2023-06-10T00:52:57;0.50;;;0.50;;
9864;SDS011;4971;52.398;9.774;2023-06-10T00:55:26;0.80;;;0.80;;
9864;SDS011;4971;52.398;9.774;2023-06-10T00:57:52;0.30;;;0.30;;
9864;SDS011;4971;52.398;9.774;2023-06-10T01:00:19;0.30;;;0.30;;
9864;SDS011;4971;52.398;9.774;2023-06-10T01:02:45;0.45;;;0.45;;
9864;SDS011;4971;52.398;9.774;2023-06-10T01:05:11;0.40;;;0.40;;
9864;SDS011;4971;52.398;9.774;2023-06-10T01:07:38;0.50;;;0.50;;
9864;SDS011;4971;52.398;9.774;2023-06-10T01:12:43;0.47;;;0.47;;
9864;SDS011;4971;52.398;9.774;2023-06-10T01:15:13;0.63;;;0.63;;
9864;SDS011;4971;52.398;9.774;2023-06-10T01:17:56;0.68;;;0.68;;
9864;SDS011;4971;52.398;9.774;2023-06-10T01:20:24;0.55;;;0.45;;
9864;SDS011;4971;52.398;9.774;2023-06-10T01:22:52;0.52;;;0.52;;
9864;SDS011;4971;52.398;9.774;2023-06-10T01:25:19;0.52;;;0.52;;
9864;SDS011;4971;52.398;9.774;2023-06-10T01:27:52;0.65;;;0.65;;
9864;SDS011;4971;52.398;9.774;2023-06-10T01:30:19;0.40;;;0.40;;
9864;SDS011;4971;52.398;9.774;2023-06-10T01:32:50;0.45;;;0.45;;
9864;SDS011;4971;52.398;9.774;2023-06-10T01:35:17;0.38;;;0.38;;
9864;SDS011;4971;52.398;9.774;2023-06-10T01:37:45;0.55;;;0.55;;
9864;SDS011;4971;52.398;9.774;2023-06-10T01:40:11;0.50;;;0.50;;
9864;SDS011;4971;52.398;9.774;2023-06-10T01:42:38;0.38;;;0.38;;
9864;SDS011;4971;52.398;9.774;2023-06-10T01:45:04;0.40;;;0.40;;
9864;SDS011;4971;52.398;9.774;2023-06-10T01:47:30;0.40;;;0.40;;
9864;SDS011;4971;52.398;9.774;2023-06-10T01:49:57;0.47;;;0.47;;
9864;SDS011;4971;52.398;9.774;2023-06-10T01:52:22;0.20;;;0.20;;
9864;SDS011;4971;52.398;9.774;2023-06-10T01:54:49;0.40;;;0.35;;
9864;SDS011;4971;52.398;9.774;2023-06-10T01:57:14;0.70;;;0.70;;
9864;SDS011;4971;52.398;9.774;2023-06-10T01:59:41;0.40;;;0.40;;
9864;SDS011;4971;52.398;9.774;2023-06-10T02:02:11;0.35;;;0.35;;
9864;SDS011;4971;52.398;9.774;2023-06-10T02:04:37;0.40;;;0.40;;
9864;SDS011;4971;52.398;9.774;2023-06-10T02:07:03;0.38;;;0.38;;
9864;SDS011;4971;52.398;9.774;2023-06-10T02:09:30;0.40;;;0.40;;
9864;SDS011;4971;52.398;9.774;2023-06-10T02:11:57;0.50;;;0.50;;
9864;SDS011;4971;52.398;9.774;2023-06-10T02:14:23;0.30;;;0.30;;
9864;SDS011;4971;52.398;9.774;2023-06-10T02:16:49;0.35;;;0.35;;
9864;SDS011;4971;52.398;9.774;2023-06-10T02:19:16;0.40;;;0.40;;
9864;SDS011;4971;52.398;9.774;2023-06-10T02:21:42;0.40;;;0.40;;
9864;SDS011;4971;52.398;9.774;2023-06-10T02:24:08;0.90;;;0.90;;
9864;SDS011;4971;52.398;9.774;2023-06-10T02:26:34;1.08;;;0.30;;
9864;SDS011;4971;52.398;9.774;2023-06-10T02:29:00;0.45;;;0.45;;
9864;SDS011;4971;52.398;9.774;2023-06-10T02:31:26;0.30;;;0.30;;
9864;SDS011;4971;52.398;9.774;2023-06-10T02:33:53;0.30;;;0.30;;
9864;SDS011;4971;52.398;9.774;2023-06-10T02:36:19;1.48;;;1.02;;
9864;SDS011;4971;52.398;9.774;2023-06-10T02:38:46;0.40;;;0.40;;
9864;SDS011;4971;52.398;9.774;2023-06-10T02:41:12;0.60;;;0.60;;
9864;SDS011;4971;52.398;9.774;2023-06-10T02:43:38;0.45;;;0.45;;
9864;SDS011;4971;52.398;9.774;2023-06-10T02:46:04;0.40;;;0.40;;
9864;SDS011;4971;52.398;9.774;2023-06-10T02:48:30;0.75;;;0.75;;
9864;SDS011;4971;52.398;9.774;2023-06-10T02:50:56;0.30;;;0.30;;
9864;SDS011;4971;52.398;9.774;2023-06-10T02:53:22;0.50;;;0.50;;
9864;SDS011;4971;52.398;9.774;2023-06-10T02:55:48;0.30;;;0.30;;
9864;SDS011;4971;52.398;9.774;2023-06-10T02:58:16;0.30;;;0.30;;
9864;SDS011;4971;52.398;9.774;2023-06-10T03:00:42;0.70;;;0.70;;
9864;SDS011;4971;52.398;9.774;2023-06-10T03:03:08;0.75;;;0.73;;
9864;SDS011;4971;52.398;9.774;2023-06-10T03:05:35;0.30;;;0.30;;
9864;SDS011;4971;52.398;9.774;2023-06-10T03:08:01;0.30;;;0.30;;
9864;SDS011;4971;52.398;9.774;2023-06-10T03:10:27;0.47;;;0.47;;
9864;SDS011;4971;52.398;9.774;2023-06-10T03:12:53;0.35;;;0.35;;
9864;SDS011;4971;52.398;9.774;2023-06-10T03:15:19;0.32;;;0.32;;
9864;SDS011;4971;52.398;9.774;2023-06-10T03:17:45;0.60;;;0.60;;
9864;SDS011;4971;52.398;9.774;2023-06-10T03:20:11;0.55;;;0.55;;
9864;SDS011;4971;52.398;9.774;2023-06-10T03:22:43;0.40;;;0.40;;
9864;SDS011;4971;52.398;9.774;2023-06-10T03:25:09;0.40;;;0.40;;
9864;SDS011;4971;52.398;9.774;2023-06-10T03:27:39;0.50;;;0.50;;
9864;SDS011;4971;52.398;9.774;2023-06-10T03:30:05;0.40;;;0.40;;
9864;SDS011;4971;52.398;9.774;2023-06-10T03:32:31;0.98;;;0.98;;
9864;SDS011;4971;52.398;9.774;2023-06-10T03:34:57;0.60;;;0.60;;
9864;SDS011;4971;52.398;9.774;2023-06-10T03:37:24;0.38;;;0.38;;
9864;SDS011;4971;52.398;9.774;2023-06-10T03:39:50;1.02;;;0.93;;
9864;SDS011;4971;52.398;9.774;2023-06-10T03:42:15;0.30;;;0.30;;
9864;SDS011;4971;52.398;9.774;2023-06-10T03:44:41;1.95;;;0.88;;
9864;SDS011;4971;52.398;9.774;2023-06-10T03:47:07;2.35;;;0.90;;
9864;SDS011;4971;52.398;9.774;2023-06-10T03:49:34;0.35;;;0.35;;
9864;SDS011;4971;52.398;9.774;2023-06-10T03:52:01;0.40;;;0.40;;
9864;SDS011;4971;52.398;9.774;2023-06-10T03:54:27;0.28;;;0.28;;
9864;SDS011;4971;52.398;9.774;2023-06-10T03:56:53;0.30;;;0.30;;
9864;SDS011;4971;52.398;9.774;2023-06-10T03:59:19;0.70;;;0.70;;
9864;SDS011;4971;52.398;9.774;2023-06-10T04:01:45;0.40;;;0.40;;
9864;SDS011;4971;52.398;9.774;2023-06-10T04:04:13;0.40;;;0.40;;
9864;SDS011;4971;52.398;9.774;2023-06-10T04:06:42;0.40;;;0.40;;
9864;SDS011;4971;52.398;9.774;2023-06-10T04:09:09;1.67;;;0.95;;
9864;SDS011;4971;52.398;9.774;2023-06-10T04:11:35;0.60;;;0.60;;
9864;SDS011;4971;52.398;9.774;2023-06-10T04:14:02;1.00;;;0.50;;
9864;SDS011;4971;52.398;9.774;2023-06-10T04:16:28;1.33;;;0.75;;
9864;SDS011;4971;52.398;9.774;2023-06-10T04:18:53;0.75;;;0.70;;
9864;SDS011;4971;52.398;9.774;2023-06-10T04:21:20;0.30;;;0.30;;
9864;SDS011;4971;52.398;9.774;2023-06-10T04:23:46;0.57;;;0.57;;
9864;SDS011;4971;52.398;9.774;2023-06-10T04:26:13;0.45;;;0.45;;
9864;SDS011;4971;52.398;9.774;2023-06-10T04:28:39;0.90;;;0.50;;
9864;SDS011;4971;52.398;9.774;2023-06-10T04:31:05;0.73;;;0.73;;
9864;SDS011;4971;52.398;9.774;2023-06-10T04:33:31;0.25;;;0.25;;
9864;SDS011;4971;52.398;9.774;2023-06-10T04:35:57;2.05;;;0.90;;
9864;SDS011;4971;52.398;9.774;2023-06-10T04:38:23;0.55;;;0.55;;
9864;SDS011;4971;52.398;9.774;2023-06-10T04:40:49;0.57;;;0.57;;
9864;SDS011;4971;52.398;9.774;2023-06-10T04:43:15;0.40;;;0.40;;
9864;SDS011;4971;52.398;9.774;2023-06-10T04:45:41;0.55;;;0.30;;
9864;SDS011;4971;52.398;9.774;2023-06-10T04:48:09;0.40;;;0.40;;
9864;SDS011;4971;52.398;9.774;2023-06-10T04:50:36;0.35;;;0.35;;
9864;SDS011;4971;52.398;9.774;2023-06-10T04:53:02;0.30;;;0.30;;
9864;SDS011;4971;52.398;9.774;2023-06-10T04:55:28;0.55;;;0.55;;
9864;SDS011;4971;52.398;9.774;2023-06-10T04:57:54;0.38;;;0.38;;
9864;SDS011;4971;52.398;9.774;2023-06-10T05:00:20;1.23;;;0.70;;
9864;SDS011;4971;52.398;9.774;2023-06-10T05:02:47;0.43;;;0.43;;
9864;SDS011;4971;52.398;9.774;2023-06-10T05:05:15;0.40;;;0.40;;
9864;SDS011;4971;52.398;9.774;2023-06-10T05:07:41;0.30;;;0.30;;
9864;SDS011;4971;52.398;9.774;2023-06-10T05:10:07;0.55;;;0.55;;
9864;SDS011;4971;52.398;9.774;2023-06-10T05:12:33;0.77;;;0.77;;
9864;SDS011;4971;52.398;9.774;2023-06-10T05:14:59;0.40;;;0.40;;
9864;SDS011;4971;52.398;9.774;2023-06-10T05:17:26;0.40;;;0.40;;
9864;SDS011;4971;52.398;9.774;2023-06-10T05:19:52;0.52;;;0.52;;
9864;SDS011;4971;52.398;9.774;2023-06-10T05:22:18;2.05;;;1.45;;
9864;SDS011;4971;52.398;9.774;2023-06-10T05:24:44;0.20;;;0.20;;
9864;SDS011;4971;52.398;9.774;2023-06-10T05:27:13;0.52;;;0.52;;
9864;SDS011;4971;52.398;9.774;2023-06-10T05:29:39;0.45;;;0.45;;
9864;SDS011;4971;52.398;9.774;2023-06-10T05:32:08;0.70;;;0.70;;
9864;SDS011;4971;52.398;9.774;2023-06-10T05:34:33;0.30;;;0.30;;
9864;SDS011;4971;52.398;9.774;2023-06-10T05:36:59;2.10;;;0.47;;
9864;SDS011;4971;52.398;9.774;2023-06-10T05:39:27;0.30;;;0.30;;
9864;SDS011;4971;52.398;9.774;2023-06-10T05:41:54;0.20;;;0.20;;
9864;SDS011;4971;52.398;9.774;2023-06-10T05:44:20;0.30;;;0.30;;
9864;SDS011;4971;52.398;9.774;2023-06-10T05:46:46;1.30;;;0.52;;
9864;SDS011;4971;52.398;9.774;2023-06-10T05:49:11;0.30;;;0.30;;
9864;SDS011;4971;52.398;9.774;2023-06-10T05:51:37;0.47;;;0.47;;
9864;SDS011;4971;52.398;9.774;2023-06-10T05:54:03;0.93;;;0.93;;
9864;SDS011;4971;52.398;9.774;2023-06-10T05:56:29;0.40;;;0.40;;
9864;SDS011;4971;52.398;9.774;2023-06-10T05:58:55;2.17;;;1.00;;
9864;SDS011;4971;52.398;9.774;2023-06-10T06:01:21;0.38;;;0.38;;
9864;SDS011;4971;52.398;9.774;2023-06-10T06:03:47;0.98;;;0.98;;
9864;SDS011;4971;52.398;9.774;2023-06-10T06:06:13;0.50;;;0.50;;
9864;SDS011;4971;52.398;9.774;2023-06-10T06:08:39;0.43;;;0.43;;
9864;SDS011;4971;52.398;9.774;2023-06-10T06:11:05;0.70;;;0.70;;
9864;SDS011;4971;52.398;9.774;2023-06-10T06:13:31;2.13;;;0.60;;
9864;SDS011;4971;52.398;9.774;2023-06-10T06:15:57;0.47;;;0.47;;
9864;SDS011;4971;52.398;9.774;2023-06-10T06:18:23;0.80;;;0.80;;
9864;SDS011;4971;52.398;9.774;2023-06-10T06:20:52;0.98;;;0.90;;
9864;SDS011;4971;52.398;9.774;2023-06-10T06:23:18;2.08;;;1.02;;
9864;SDS011;4971;52.398;9.774;2023-06-10T06:25:44;0.55;;;0.55;;
9864;SDS011;4971;52.398;9.774;2023-06-10T06:28:13;0.30;;;0.30;;
9864;SDS011;4971;52.398;9.774;2023-06-10T06:30:38;0.40;;;0.40;;
9864;SDS011;4971;52.398;9.774;2023-06-10T06:33:04;0.38;;;0.38;;
9864;SDS011;4971;52.398;9.774;2023-06-10T06:35:30;0.60;;;0.60;;
9864;SDS011;4971;52.398;9.774;2023-06-10T06:37:57;0.40;;;0.40;;
9864;SDS011;4971;52.398;9.774;2023-06-10T06:40:23;0.45;;;0.45;;
9864;SDS011;4971;52.398;9.774;2023-06-10T06:42:52;0.95;;;0.70;;
9864;SDS011;4971;52.398;9.774;2023-06-10T06:45:17;0.32;;;0.32;;
9864;SDS011;4971;52.398;9.774;2023-06-10T06:47:43;0.60;;;0.60;;
9864;SDS011;4971;52.398;9.774;2023-06-10T06:50:09;0.20;;;0.20;;
9864;SDS011;4971;52.398;9.774;2023-06-10T06:52:35;0.50;;;0.50;;
9864;SDS011;4971;52.398;9.774;2023-06-10T06:55:01;0.75;;;0.75;;
9864;SDS011;4971;52.398;9.774;2023-06-10T06:57:27;0.50;;;0.50;;
9864;SDS011;4971;52.398;9.774;2023-06-10T06:59:53;0.73;;;0.73;;
9864;SDS011;4971;52.398;9.774;2023-06-10T07:02:19;0.77;;;0.60;;
9864;SDS011;4971;52.398;9.774;2023-06-10T07:04:45;0.40;;;0.40;;
9864;SDS011;4971;52.398;9.774;2023-06-10T07:07:13;0.70;;;0.70;;
9864;SDS011;4971;52.398;9.774;2023-06-10T07:09:39;0.57;;;0.40;;
9864;SDS011;4971;52.398;9.774;2023-06-10T07:12:06;0.85;;;0.45;;
9864;SDS011;4971;52.398;9.774;2023-06-10T07:14:32;0.73;;;0.73;;
9864;SDS011;4971;52.398;9.774;2023-06-10T07:16:58;0.65;;;0.65;;
9864;SDS011;4971;52.398;9.774;2023-06-10T07:19:24;0.57;;;0.57;;
9864;SDS011;4971;52.398;9.774;2023-06-10T07:21:50;0.85;;;0.63;;
9864;SDS011;4971;52.398;9.774;2023-06-10T07:24:16;0.43;;;0.43;;
9864;SDS011;4971;52.398;9.774;2023-06-10T07:26:42;0.60;;;0.60;;
9864;SDS011;4971;52.398;9.774;2023-06-10T07:29:08;0.60;;;0.60;;
9864;SDS011;4971;52.398;9.774;2023-06-10T07:31:34;1.23;;;0.80;;
9864;SDS011;4971;52.398;9.774;2023-06-10T07:34:00;1.05;;;0.98;;
9864;SDS011;4971;52.398;9.774;2023-06-10T07:36:28;1.15;;;0.65;;
9864;SDS011;4971;52.398;9.774;2023-06-10T07:38:54;1.27;;;0.90;;
9864;SDS011;4971;52.398;9.774;2023-06-10T07:41:22;0.80;;;0.73;;
9864;SDS011;4971;52.398;9.774;2023-06-10T07:43:49;0.60;;;0.60;;
9864;SDS011;4971;52.398;9.774;2023-06-10T07:46:19;0.90;;;0.90;;
9864;SDS011;4971;52.398;9.774;2023-06-10T07:48:45;0.60;;;0.60;;
9864;SDS011;4971;52.398;9.774;2023-06-10T07:51:11;0.45;;;0.45;;
9864;SDS011;4971;52.398;9.774;2023-06-10T07:53:37;0.82;;;0.82;;
9864;SDS011;4971;52.398;9.774;2023-06-10T07:56:03;0.88;;;0.85;;
9864;SDS011;4971;52.398;9.774;2023-06-10T07:58:29;0.90;;;0.90;;
9864;SDS011;4971;52.398;9.774;2023-06-10T08:00:55;1.38;;;0.82;;
9864;SDS011;4971;52.398;9.774;2023-06-10T08:03:21;1.33;;;1.10;;
9864;SDS011;4971;52.398;9.774;2023-06-10T08:05:46;2.35;;;0.93;;
9864;SDS011;4971;52.398;9.774;2023-06-10T08:08:13;1.63;;;1.15;;
9864;SDS011;4971;52.398;9.774;2023-06-10T08:10:39;1.02;;;0.68;;
9864;SDS011;4971;52.398;9.774;2023-06-10T08:13:05;0.85;;;0.85;;
9864;SDS011;4971;52.398;9.774;2023-06-10T08:15:30;0.73;;;0.73;;
9864;SDS011;4971;52.398;9.774;2023-06-10T08:17:56;1.58;;;0.80;;
9864;SDS011;4971;52.398;9.774;2023-06-10T08:20:22;0.98;;;0.90;;
9864;SDS011;4971;52.398;9.774;2023-06-10T08:22:48;0.70;;;0.70;;
9864;SDS011;4971;52.398;9.774;2023-06-10T08:25:14;0.68;;;0.68;;
9864;SDS011;4971;52.398;9.774;2023-06-10T08:27:40;0.57;;;0.57;;
9864;SDS011;4971;52.398;9.774;2023-06-10T08:30:07;1.55;;;1.20;;
9864;SDS011;4971;52.398;9.774;2023-06-10T08:32:38;0.47;;;0.47;;
9864;SDS011;4971;52.398;9.774;2023-06-10T08:35:05;0.90;;;0.90;;
9864;SDS011;4971;52.398;9.774;2023-06-10T08:37:31;0.75;;;0.75;;
9864;SDS011;4971;52.398;9.774;2023-06-10T08:39:57;1.05;;;0.93;;
9864;SDS011;4971;52.398;9.774;2023-06-10T08:42:24;1.88;;;1.17;;
9864;SDS011;4971;52.398;9.774;2023-06-10T08:44:53;1.00;;;0.95;;
9864;SDS011;4971;52.398;9.774;2023-06-10T08:47:22;1.17;;;1.08;;
9864;SDS011;4971;52.398;9.774;2023-06-10T08:49:49;0.70;;;0.70;;
9864;SDS011;4971;52.398;9.774;2023-06-10T08:52:18;0.80;;;0.80;;
9864;SDS011;4971;52.398;9.774;2023-06-10T08:54:52;2.05;;;1.20;;
9864;SDS011;4971;52.398;9.774;2023-06-10T08:57:20;0.88;;;0.88;;
9864;SDS011;4971;52.398;9.774;2023-06-10T08:59:46;1.08;;;0.98;;
9864;SDS011;4971;52.398;9.774;2023-06-10T09:02:13;2.60;;;0.93;;
9864;SDS011;4971;52.398;9.774;2023-06-10T09:04:41;1.48;;;1.33;;
9864;SDS011;4971;52.398;9.774;2023-06-10T09:07:08;0.82;;;0.80;;
9864;SDS011;4971;52.398;9.774;2023-06-10T09:09:34;0.80;;;0.80;;
9864;SDS011;4971;52.398;9.774;2023-06-10T09:12:01;1.33;;;1.23;;
9864;SDS011;4971;52.398;9.774;2023-06-10T09:14:26;1.67;;;1.08;;
9864;SDS011;4971;52.398;9.774;2023-06-10T09:16:52;0.80;;;0.80;;
9864;SDS011;4971;52.398;9.774;2023-06-10T09:19:21;0.95;;;0.90;;
9864;SDS011;4971;52.398;9.774;2023-06-10T09:21:49;1.17;;;1.10;;
9864;SDS011;4971;52.398;9.774;2023-06-10T09:24:15;0.70;;;0.70;;
9864;SDS011;4971;52.398;9.774;2023-06-10T09:26:41;1.25;;;1.00;;
9864;SDS011;4971;52.398;9.774;2023-06-10T09:29:08;1.25;;;1.15;;
9864;SDS011;4971;52.398;9.774;2023-06-10T09:31:35;1.67;;;1.10;;
9864;SDS011;4971;52.398;9.774;2023-06-10T09:34:05;1.25;;;1.13;;
9864;SDS011;4971;52.398;9.774;2023-06-10T09:36:35;0.98;;;0.95;;
9864;SDS011;4971;52.398;9.774;2023-06-10T09:39:01;1.70;;;1.30;;
9864;SDS011;4971;52.398;9.774;2023-06-10T09:41:34;1.83;;;1.42;;
9864;SDS011;4971;52.398;9.774;2023-06-10T09:44:00;1.20;;;1.10;;
9864;SDS011;4971;52.398;9.774;2023-06-10T09:46:29;2.08;;;1.30;;
9864;SDS011;4971;52.398;9.774;2023-06-10T09:48:56;1.20;;;1.20;;
9864;SDS011;4971;52.398;9.774;2023-06-10T09:51:23;1.30;;;1.20;;
9864;SDS011;4971;52.398;9.774;2023-06-10T09:53:52;1.40;;;1.00;;
9864;SDS011;4971;52.398;9.774;2023-06-10T09:56:18;1.02;;;1.02;;
9864;SDS011;4971;52.398;9.774;2023-06-10T09:58:44;1.40;;;1.30;;
9864;SDS011;4971;52.398;9.774;2023-06-10T10:01:12;1.35;;;1.13;;
9864;SDS011;4971;52.398;9.774;2023-06-10T10:03:49;1.00;;;1.00;;
9864;SDS011;4971;52.398;9.774;2023-06-10T10:06:19;1.27;;;1.02;;
9864;SDS011;4971;52.398;9.774;2023-06-10T10:08:46;1.30;;;1.20;;
9864;SDS011;4971;52.398;9.774;2023-06-10T10:11:13;1.10;;;1.10;;
9864;SDS011;4971;52.398;9.774;2023-06-10T10:13:41;1.00;;;1.00;;
9864;SDS011;4971;52.398;9.774;2023-06-10T10:16:11;1.08;;;1.08;;
9864;SDS011;4971;52.398;9.774;2023-06-10T10:18:41;1.40;;;1.30;;
9864;SDS011;4971;52.398;9.774;2023-06-10T10:21:13;3.85;;;1.15;;
9864;SDS011;4971;52.398;9.774;2023-06-10T10:23:47;1.20;;;1.13;;
9864;SDS011;4971;52.398;9.774;2023-06-10T10:26:47;1.55;;;1.20;;
9864;SDS011;4971;52.398;9.774;2023-06-10T10:31:41;3.50;;;1.30;;
9864;SDS011;4971;52.398;9.774;2023-06-10T10:34:18;1.13;;;1.10;;
9864;SDS011;4971;52.398;9.774;2023-06-10T10:36:49;2.75;;;1.20;;
9864;SDS011;4971;52.398;9.774;2023-06-10T10:39:15;1.55;;;1.45;;
9864;SDS011;4971;52.398;9.774;2023-06-10T10:41:42;3.17;;;1.25;;
9864;SDS011;4971;52.398;9.774;2023-06-10T10:44:09;2.30;;;1.33;;
9864;SDS011;4971;52.398;9.774;2023-06-10T10:46:48;1.30;;;1.20;;
9864;SDS011;4971;52.398;9.774;2023-06-10T10:49:16;1.30;;;1.20;;
9864;SDS011;4971;52.398;9.774;2023-06-10T10:51:56;1.27;;;1.17;;
9864;SDS011;4971;52.398;9.774;2023-06-10T10:54:35;4.13;;;1.33;;
9864;SDS011;4971;52.398;9.774;2023-06-10T10:59:44;1.70;;;1.08;;
9864;SDS011;4971;52.398;9.774;2023-06-10T11:02:10;1.52;;;1.33;;
9864;SDS011;4971;52.398;9.774;2023-06-10T11:04:36;1.10;;;1.10;;
9864;SDS011;4971;52.398;9.774;2023-06-10T11:07:05;1.20;;;1.10;;
9864;SDS011;4971;52.398;9.774;2023-06-10T11:09:32;0.98;;;0.98;;
9864;SDS011;4971;52.398;9.774;2023-06-10T11:11:58;1.05;;;1.02;;
9864;SDS011;4971;52.398;9.774;2023-06-10T11:14:28;1.20;;;1.10;;
9864;SDS011;4971;52.398;9.774;2023-06-10T11:16:58;0.80;;;0.80;;
9864;SDS011;4971;52.398;9.774;2023-06-10T11:19:37;1.45;;;1.35;;
9864;SDS011;4971;52.398;9.774;2023-06-10T11:22:15;1.75;;;1.23;;
9864;SDS011;4971;52.398;9.774;2023-06-10T11:24:44;2.13;;;1.25;;
9864;SDS011;4971;52.398;9.774;2023-06-10T11:29:58;0.90;;;0.90;;
9864;SDS011;4971;52.398;9.774;2023-06-10T11:32:43;1.30;;;1.20;;
9864;SDS011;4971;52.398;9.774;2023-06-10T11:35:09;0.70;;;0.70;;
9864;SDS011;4971;52.398;9.774;2023-06-10T11:37:35;2.15;;;1.60;;
9864;SDS011;4971;52.398;9.774;2023-06-10T11:40:02;1.90;;;1.10;;
9864;SDS011;4971;52.398;9.774;2023-06-10T11:42:28;1.27;;;1.20;;
9864;SDS011;4971;52.398;9.774;2023-06-10T11:44:55;1.25;;;1.15;;
9864;SDS011;4971;52.398;9.774;2023-06-10T11:47:20;1.80;;;1.00;;
9864;SDS011;4971;52.398;9.774;2023-06-10T11:49:55;1.02;;;0.93;;
9864;SDS011;4971;52.398;9.774;2023-06-10T11:52:30;1.90;;;1.10;;
9864;SDS011;4971;52.398;9.774;2023-06-10T11:55:04;1.30;;;1.20;;
9864;SDS011;4971;52.398;9.774;2023-06-10T11:57:33;1.50;;;1.23;;
9864;SDS011;4971;52.398;9.774;2023-06-10T12:00:06;1.38;;;1.08;;
9864;SDS011;4971;52.398;9.774;2023-06-10T12:02:32;1.98;;;1.23;;
9864;SDS011;4971;52.398;9.774;2023-06-10T12:05:09;2.15;;;1.52;;
9864;SDS011;4971;52.398;9.774;2023-06-10T12:07:38;0.93;;;0.90;;
9864;SDS011;4971;52.398;9.774;2023-06-10T12:10:04;1.38;;;1.15;;
9864;SDS011;4971;52.398;9.774;2023-06-10T12:12:30;1.23;;;1.15;;
9864;SDS011;4971;52.398;9.774;2023-06-10T12:14:59;1.48;;;1.35;;
9864;SDS011;4971;52.398;9.774;2023-06-10T12:19:57;1.85;;;1.27;;
9864;SDS011;4971;52.398;9.774;2023-06-10T12:22:23;1.23;;;1.13;;
9864;SDS011;4971;52.398;9.774;2023-06-10T12:25:00;1.20;;;1.10;;
9864;SDS011;4971;52.398;9.774;2023-06-10T12:27:31;1.88;;;1.52;;
9864;SDS011;4971;52.398;9.774;2023-06-10T12:29:58;1.33;;;1.02;;
9864;SDS011;4971;52.398;9.774;2023-06-10T12:32:44;1.00;;;0.93;;
9864;SDS011;4971;52.398;9.774;2023-06-10T12:35:12;1.52;;;1.42;;
9864;SDS011;4971;52.398;9.774;2023-06-10T12:37:38;1.15;;;1.10;;
9864;SDS011;4971;52.398;9.774;2023-06-10T12:40:05;1.40;;;1.30;;
9864;SDS011;4971;52.398;9.774;2023-06-10T12:42:33;1.40;;;1.20;;
9864;SDS011;4971;52.398;9.774;2023-06-10T12:45:03;1.75;;;1.40;;
9864;SDS011;4971;52.398;9.774;2023-06-10T12:49:57;1.05;;;1.05;;
9864;SDS011;4971;52.398;9.774;2023-06-10T12:52:24;3.13;;;1.42;;
9864;SDS011;4971;52.398;9.774;2023-06-10T12:54:50;1.50;;;1.40;;
9864;SDS011;4971;52.398;9.774;2023-06-10T12:57:19;1.10;;;1.00;;
9864;SDS011;4971;52.398;9.774;2023-06-10T12:59:45;3.85;;;1.23;;
9864;SDS011;4971;52.398;9.774;2023-06-10T13:02:15;1.42;;;1.25;;
9864;SDS011;4971;52.398;9.774;2023-06-10T13:04:44;1.92;;;1.35;;
9864;SDS011;4971;52.398;9.774;2023-06-10T13:09:39;1.65;;;1.13;;
9864;SDS011;4971;52.398;9.774;2023-06-10T13:12:05;1.88;;;1.42;;
9864;SDS011;4971;52.398;9.774;2023-06-10T13:14:31;1.02;;;1.02;;
9864;SDS011;4971;52.398;9.774;2023-06-10T13:16:57;1.33;;;1.23;;
9864;SDS011;4971;52.398;9.774;2023-06-10T13:19:23;3.35;;;1.40;;
9864;SDS011;4971;52.398;9.774;2023-06-10T13:21:49;1.85;;;1.23;;
9864;SDS011;4971;52.398;9.774;2023-06-10T13:24:15;1.38;;;1.27;;
9864;SDS011;4971;52.398;9.774;2023-06-10T13:26:41;2.28;;;1.33;;
9864;SDS011;4971;52.398;9.774;2023-06-10T13:29:07;1.10;;;1.00;;
9864;SDS011;4971;52.398;9.774;2023-06-10T13:31:39;1.45;;;1.35;;
9864;SDS011;4971;52.398;9.774;2023-06-10T13:34:05;1.40;;;1.30;;
9864;SDS011;4971;52.398;9.774;2023-06-10T13:36:31;1.70;;;1.20;;
9864;SDS011;4971;52.398;9.774;2023-06-10T13:38:57;1.45;;;1.35;;
9864;SDS011;4971;52.398;9.774;2023-06-10T13:41:22;1.40;;;1.17;;
9864;SDS011;4971;52.398;9.774;2023-06-10T13:43:49;1.60;;;1.50;;
9864;SDS011;4971;52.398;9.774;2023-06-10T13:46:15;2.00;;;1.23;;
9864;SDS011;4971;52.398;9.774;2023-06-10T13:48:41;0.80;;;0.80;;
9864;SDS011;4971;52.398;9.774;2023-06-10T13:51:07;1.20;;;1.10;;
9864;SDS011;4971;52.398;9.774;2023-06-10T13:53:34;1.38;;;1.27;;
9864;SDS011;4971;52.398;9.774;2023-06-10T13:56:00;1.40;;;1.30;;
9864;SDS011;4971;52.398;9.774;2023-06-10T13:58:27;1.17;;;1.10;;
9864;SDS011;4971;52.398;9.774;2023-06-10T14:00:53;1.50;;;1.40;;
9864;SDS011;4971;52.398;9.774;2023-06-10T14:03:19;1.67;;;1.50;;
9864;SDS011;4971;52.398;9.774;2023-06-10T14:05:45;1.60;;;1.50;;
9864;SDS011;4971;52.398;9.774;2023-06-10T14:08:11;1.83;;;1.33;;
9864;SDS011;4971;52.398;9.774;2023-06-10T14:10:38;1.25;;;1.15;;
9864;SDS011;4971;52.398;9.774;2023-06-10T14:13:04;1.45;;;1.35;;
9864;SDS011;4971;52.398;9.774;2023-06-10T14:15:31;1.20;;;1.10;;
9864;SDS011;4971;52.398;9.774;2023-06-10T14:17:57;1.88;;;1.55;;
9864;SDS011;4971;52.398;9.774;2023-06-10T14:20:23;1.30;;;1.20;;
9864;SDS011;4971;52.398;9.774;2023-06-10T14:22:51;1.48;;;1.25;;
9864;SDS011;4971;52.398;9.774;2023-06-10T14:25:17;1.30;;;1.20;;
9864;SDS011;4971;52.398;9.774;2023-06-10T14:27:43;1.08;;;1.02;;
9864;SDS011;4971;52.398;9.774;2023-06-10T14:30:09;1.20;;;1.10;;
9864;SDS011;4971;52.398;9.774;2023-06-10T14:32:35;1.35;;;1.25;;
9864;SDS011;4971;52.398;9.774;2023-06-10T14:35:02;3.50;;;1.60;;
9864;SDS011;4971;52.398;9.774;2023-06-10T14:37:27;2.85;;;2.08;;
9864;SDS011;4971;52.398;9.774;2023-06-10T14:39:54;1.27;;;1.10;;
9864;SDS011;4971;52.398;9.774;2023-06-10T14:42:20;1.60;;;1.50;;
9864;SDS011;4971;52.398;9.774;2023-06-10T14:44:46;1.63;;;1.42;;
9864;SDS011;4971;52.398;9.774;2023-06-10T14:47:11;1.45;;;1.20;;
9864;SDS011;4971;52.398;9.774;2023-06-10T14:49:37;1.85;;;1.67;;
9864;SDS011;4971;52.398;9.774;2023-06-10T14:52:03;1.50;;;1.40;;
9864;SDS011;4971;52.398;9.774;2023-06-10T14:54:29;1.33;;;1.23;;
9864;SDS011;4971;52.398;9.774;2023-06-10T14:56:55;1.13;;;1.02;;
9864;SDS011;4971;52.398;9.774;2023-06-10T14:59:21;1.10;;;1.00;;
9864;SDS011;4971;52.398;9.774;2023-06-10T15:01:47;1.02;;;1.02;;
9864;SDS011;4971;52.398;9.774;2023-06-10T15:04:13;1.27;;;1.20;;
9864;SDS011;4971;52.398;9.774;2023-06-10T15:06:41;1.27;;;1.13;;
9864;SDS011;4971;52.398;9.774;2023-06-10T15:09:08;1.60;;;1.20;;
9864;SDS011;4971;52.398;9.774;2023-06-10T15:11:34;1.30;;;1.20;;
9864;SDS011;4971;52.398;9.774;2023-06-10T15:14:00;2.45;;;1.17;;
9864;SDS011;4971;52.398;9.774;2023-06-10T15:16:26;1.70;;;1.60;;
9864;SDS011;4971;52.398;9.774;2023-06-10T15:18:52;1.27;;;1.17;;
9864;SDS011;4971;52.398;9.774;2023-06-10T15:21:18;1.40;;;1.30;;
9864;SDS011;4971;52.398;9.774;2023-06-10T15:23:44;1.30;;;1.20;;
9864;SDS011;4971;52.398;9.774;2023-06-10T15:26:10;1.75;;;1.30;;
9864;SDS011;4971;52.398;9.774;2023-06-10T15:28:36;1.45;;;1.35;;
9864;SDS011;4971;52.398;9.774;2023-06-10T15:31:05;1.85;;;1.20;;
9864;SDS011;4971;52.398;9.774;2023-06-10T15:33:32;1.67;;;1.30;;